createdAt,value
2019-02-06T00:01:29.431Z,77.33
2019-02-06T00:03:59.738Z,71.80
2019-02-06T00:06:29.847Z,75.37
2019-02-06T00:09:00.157Z,83.73
2019-02-06T00:11:30.069Z,73.87
2019-02-06T00:14:00.394Z,74.87
2019-02-06T00:16:30.902Z,68.67
2019-02-06T00:19:01.148Z,80.77
2019-02-06T00:21:31.198Z,65.30
2019-02-06T00:24:01.601Z,58.17
2019-02-06T00:26:31.514Z,57.40
2019-02-06T00:29:01.429Z,58.27
2019-02-06T00:31:31.346Z,74.37
2019-02-06T00:34:01.255Z,56.60
2019-02-06T00:36:31.661Z,66.20
2019-02-06T00:39:01.671Z,56.53
2019-02-06T00:41:31.588Z,57.80
2019-02-06T00:44:01.599Z,66.57
2019-02-06T00:46:32.296Z,53.83
2019-02-06T00:49:02.507Z,54.13
2019-02-06T00:51:32.714Z,54.93
2019-02-06T00:54:02.728Z,55.83
2019-02-06T00:56:32.637Z,53.13
2019-02-06T00:59:02.948Z,58.20
2019-02-06T01:01:33.352Z,56.33
2019-02-06T01:04:03.461Z,53.33
2019-02-06T01:06:34.356Z,57.70
2019-02-06T01:09:06.236Z,54.37
2019-02-06T01:11:36.249Z,54.50
2019-02-06T01:14:06.749Z,52.90
2019-02-06T01:16:36.664Z,49.40
2019-02-06T01:19:07.173Z,60.53
2019-02-06T01:21:37.671Z,53.57
2019-02-06T01:24:07.881Z,53.20
2019-02-06T01:26:37.797Z,50.13
2019-02-06T01:29:07.710Z,47.10
2019-02-06T01:31:37.847Z,49.27
2019-02-06T01:34:08.029Z,43.37
2019-02-06T01:36:37.941Z,45.33
2019-02-06T01:39:10.999Z,47.87
2019-02-06T01:41:41.008Z,42.63
2019-02-06T01:44:11.025Z,43.33
2019-02-06T01:46:41.335Z,40.93
2019-02-06T01:49:11.540Z,44.20
2019-02-06T01:51:41.456Z,41.90
2019-02-06T01:54:11.365Z,38.50
2019-02-06T01:56:41.472Z,42.97
2019-02-06T01:59:11.485Z,42.43
2019-02-06T02:01:41.891Z,41.07
2019-02-06T02:04:11.810Z,40.37
2019-02-06T02:06:41.721Z,37.07
2019-02-06T02:09:13.305Z,40.50
2019-02-06T02:11:43.685Z,37.57
2019-02-06T02:14:14.014Z,39.13
2019-02-06T02:16:44.519Z,36.27
2019-02-06T02:19:14.823Z,36.77
2019-02-06T02:21:44.736Z,36.23
2019-02-06T02:24:15.044Z,32.70
2019-02-06T02:26:45.057Z,38.47
2019-02-06T02:29:14.968Z,32.73
2019-02-06T02:31:45.514Z,35.47
2019-02-06T02:34:15.483Z,33.77
2019-02-06T02:36:45.593Z,33.80
2019-02-06T02:39:15.540Z,32.70
2019-02-06T02:41:45.716Z,33.37
2019-02-06T02:44:15.727Z,29.27
2019-02-06T02:46:46.237Z,27.97
2019-02-06T02:49:16.146Z,30.67
2019-02-06T02:51:46.058Z,30.27
2019-02-06T02:54:15.974Z,30.63
2019-02-06T02:56:46.380Z,29.87
2019-02-06T02:59:16.880Z,32.57
2019-02-06T03:01:50.822Z,27.97
2019-02-06T03:04:22.605Z,24.20
2019-02-06T03:06:53.009Z,21.53
2019-02-06T03:09:22.922Z,17.97
2019-02-06T03:11:53.428Z,17.93
2019-02-06T03:14:23.341Z,17.33
2019-02-06T03:16:53.255Z,17.97
2019-02-06T03:19:23.269Z,18.73
2019-02-06T03:21:53.178Z,18.10
2019-02-06T03:24:23.288Z,17.97
2019-02-06T03:26:53.596Z,18.17
2019-02-06T03:29:23.511Z,17.47
2019-02-06T03:31:53.423Z,17.80
2019-02-06T03:34:23.539Z,17.63
2019-02-06T03:36:53.839Z,15.87
2019-02-06T03:39:23.950Z,14.00
2019-02-06T03:41:54.452Z,14.97
2019-02-06T03:44:24.465Z,14.33
2019-02-06T03:46:54.776Z,13.97
2019-02-06T03:49:24.686Z,13.50
2019-02-06T03:51:54.851Z,14.23
2019-02-06T03:54:24.807Z,12.63
2019-02-06T03:56:54.727Z,13.37
2019-02-06T03:59:24.732Z,12.97
2019-02-06T04:01:54.644Z,12.23
2019-02-06T04:04:24.561Z,10.80
2019-02-06T04:07:00.746Z,11.90
2019-02-06T04:09:26.187Z,11.70
2019-02-06T04:11:56.169Z,11.80
2019-02-06T04:14:26.179Z,11.43
2019-02-06T04:16:56.093Z,11.37
2019-02-06T04:19:26.304Z,11.90
2019-02-06T04:21:56.413Z,11.27
2019-02-06T04:24:27.995Z,11.13
2019-02-06T04:26:57.907Z,11.07
2019-02-06T04:29:27.822Z,9.17
2019-02-06T04:31:57.736Z,10.30
2019-02-06T04:34:27.846Z,9.37
2019-02-06T04:37:06.244Z,9.40
2019-02-06T04:39:29.443Z,10.23
2019-02-06T04:41:59.356Z,10.17
2019-02-06T04:44:29.269Z,9.90
2019-02-06T04:46:59.182Z,10.97
2019-02-06T04:49:29.096Z,10.33
2019-02-06T04:51:59.011Z,11.10
2019-02-06T04:54:28.929Z,11.93
2019-02-06T04:56:59.285Z,11.10
2019-02-06T04:59:29.350Z,10.87
2019-02-06T05:01:59.255Z,10.33
2019-02-06T05:04:29.167Z,9.60
2019-02-06T05:06:59.672Z,10.00
2019-02-06T05:09:29.583Z,8.73
2019-02-06T05:11:59.496Z,9.83
2019-02-06T05:14:29.408Z,9.13
2019-02-06T05:16:59.715Z,9.67
2019-02-06T05:19:29.829Z,10.20
2019-02-06T05:22:00.036Z,11.37
2019-02-06T05:24:29.951Z,11.63
2019-02-06T05:26:59.864Z,11.20
2019-02-06T05:29:30.173Z,10.97
2019-02-06T05:32:00.377Z,11.47
2019-02-06T05:34:30.586Z,11.90
2019-02-06T05:37:00.854Z,11.67
2019-02-06T05:39:30.807Z,12.63
2019-02-06T05:42:00.819Z,14.30
2019-02-06T05:44:31.155Z,13.13
2019-02-06T05:47:01.157Z,13.90
2019-02-06T05:49:31.245Z,16.97
2019-02-06T05:52:01.458Z,15.17
2019-02-06T05:54:31.368Z,14.77
2019-02-06T05:57:01.282Z,16.17
2019-02-06T05:59:31.196Z,14.90
2019-02-06T06:02:01.501Z,17.37
2019-02-06T06:04:31.416Z,16.00
2019-02-06T06:07:01.920Z,15.53
2019-02-06T06:09:32.032Z,14.47
2019-02-06T06:12:02.175Z,14.37
2019-02-06T06:14:32.051Z,16.17
2019-02-06T06:17:01.975Z,14.30
2019-02-06T06:19:31.878Z,15.83
2019-02-06T06:22:02.285Z,16.37
2019-02-06T06:24:32.497Z,18.80
2019-02-06T06:27:02.415Z,21.60
2019-02-06T06:29:32.319Z,42.07
2019-02-06T06:32:02.234Z,54.67
2019-02-06T06:34:32.345Z,35.47
2019-02-06T06:37:02.945Z,33.70
2019-02-06T06:39:32.861Z,28.30
2019-02-06T06:42:03.196Z,27.77
2019-02-06T06:44:33.181Z,30.80
2019-02-06T06:47:03.384Z,41.73
2019-02-06T06:49:33.298Z,36.37
2019-02-06T06:52:03.981Z,28.37
2019-02-06T06:54:34.110Z,27.63
2019-02-06T06:57:04.021Z,27.10
2019-02-06T06:59:34.427Z,26.83
2019-02-06T07:02:04.733Z,25.43
2019-02-06T07:04:35.634Z,27.93
2019-02-06T07:07:06.331Z,26.43
2019-02-06T07:09:36.244Z,27.03
2019-02-06T07:12:06.449Z,31.60
2019-02-06T07:14:36.436Z,41.00
2019-02-06T07:17:06.672Z,54.83
2019-02-06T07:19:36.894Z,48.13
2019-02-06T07:22:06.797Z,57.57
2019-02-06T07:24:36.904Z,40.33
2019-02-06T07:27:07.212Z,32.93
2019-02-06T07:29:37.131Z,32.87
2019-02-06T07:32:07.138Z,31.43
2019-02-06T07:34:37.051Z,32.80
2019-02-06T07:37:07.357Z,34.43
2019-02-06T07:39:37.863Z,59.87
2019-02-06T07:42:07.775Z,52.77
2019-02-06T07:44:37.687Z,39.70
2019-02-06T07:47:07.896Z,39.90
2019-02-06T07:49:37.909Z,33.07
2019-02-06T07:52:07.821Z,38.43
2019-02-06T07:54:38.028Z,39.57
2019-02-06T07:57:08.040Z,35.40
2019-02-06T07:59:37.957Z,32.93
2019-02-06T08:02:08.261Z,42.80
2019-02-06T08:04:38.173Z,38.50
2019-02-06T08:07:08.186Z,38.90
2019-02-06T08:09:38.099Z,32.33
2019-02-06T08:12:08.212Z,29.80
2019-02-06T08:14:38.235Z,34.93
2019-02-06T08:17:09.019Z,33.43
2019-02-06T08:19:39.227Z,29.47
2019-02-06T08:22:09.735Z,29.80
2019-02-06T08:24:39.843Z,29.63
2019-02-06T08:27:09.756Z,27.53
2019-02-06T08:29:39.670Z,25.63
2019-02-06T08:32:09.876Z,21.40
2019-02-06T08:34:39.897Z,19.67
2019-02-06T08:37:10.162Z,20.70
2019-02-06T08:39:40.111Z,20.47
2019-02-06T08:42:10.612Z,21.30
2019-02-06T08:44:40.624Z,22.37
2019-02-06T08:47:10.541Z,24.80
2019-02-06T08:49:40.943Z,24.03
2019-02-06T08:52:10.857Z,22.23
2019-02-06T08:54:41.067Z,23.43
2019-02-06T08:57:11.490Z,22.90
2019-02-06T08:59:42.274Z,22.07
2019-02-06T09:02:12.182Z,22.67
2019-02-06T09:04:42.291Z,22.97
2019-02-06T09:07:12.206Z,23.47
2019-02-06T09:09:43.569Z,26.30
2019-02-06T09:12:13.607Z,27.40
2019-02-06T09:14:43.816Z,26.80
2019-02-06T09:17:14.221Z,25.80
2019-02-06T09:19:44.132Z,25.63
2019-02-06T09:22:13.942Z,24.27
2019-02-06T09:24:45.043Z,24.17
2019-02-06T09:27:15.250Z,26.37
2019-02-06T09:29:46.116Z,25.80
2019-02-06T09:32:16.059Z,27.87
2019-02-06T09:34:46.170Z,26.20
2019-02-06T09:37:16.082Z,28.60
2019-02-06T09:39:46.001Z,29.60
2019-02-06T09:42:16.204Z,26.90
2019-02-06T09:44:46.412Z,31.07
2019-02-06T09:47:16.326Z,44.20
2019-02-06T09:49:46.241Z,29.47
2019-02-06T09:52:16.154Z,24.00
2019-02-06T09:54:46.220Z,26.03
2019-02-06T09:57:16.962Z,28.23
2019-02-06T09:59:47.174Z,24.77
2019-02-06T10:02:17.085Z,28.57
2019-02-06T10:04:46.998Z,21.80
2019-02-06T10:07:17.011Z,24.20
2019-02-06T10:09:47.023Z,25.03
2019-02-06T10:12:17.240Z,22.77
2019-02-06T10:14:47.339Z,23.97
2019-02-06T10:17:17.846Z,25.70
2019-02-06T10:19:47.758Z,22.40
2019-02-06T10:22:17.772Z,23.57
2019-02-06T10:24:50.439Z,24.43
2019-02-06T10:27:20.349Z,23.63
2019-02-06T10:29:50.262Z,21.80
2019-02-06T10:32:20.277Z,19.60
2019-02-06T10:34:50.187Z,17.97
2019-02-06T10:37:20.100Z,20.60
2019-02-06T10:39:50.016Z,16.57
2019-02-06T10:42:19.931Z,15.10
2019-02-06T10:44:49.840Z,13.57
2019-02-06T10:47:19.753Z,15.60
2019-02-06T10:49:49.673Z,14.33
2019-02-06T10:52:19.683Z,15.50
2019-02-06T10:54:50.479Z,15.50
2019-02-06T10:57:20.687Z,13.20
2019-02-06T10:59:50.599Z,9.97
2019-02-06T11:02:20.517Z,7.83
2019-02-06T11:04:50.623Z,7.60
2019-02-06T11:07:21.131Z,10.07
2019-02-06T11:09:51.730Z,9.47
2019-02-06T11:12:24.566Z,9.37
2019-02-06T11:14:53.719Z,9.60
2019-02-06T11:17:24.122Z,8.50
2019-02-06T11:19:54.137Z,9.00
2019-02-06T11:22:24.046Z,8.87
2019-02-06T11:24:54.259Z,7.20
2019-02-06T11:27:24.563Z,7.83
2019-02-06T11:29:54.576Z,8.00
2019-02-06T11:32:24.494Z,8.03
2019-02-06T11:34:54.402Z,7.83
2019-02-06T11:37:25.002Z,6.27
2019-02-06T11:39:58.110Z,6.23
2019-02-06T11:42:26.994Z,6.33
2019-02-06T11:44:56.903Z,6.20
2019-02-06T11:47:26.816Z,6.50
2019-02-06T11:49:58.598Z,6.10
2019-02-06T11:52:28.710Z,5.60
2019-02-06T11:54:58.921Z,6.90
2019-02-06T11:57:28.833Z,6.30
2019-02-06T11:59:58.750Z,3.53
2019-02-06T12:02:36.952Z,3.20
2019-02-06T12:05:00.569Z,2.90
2019-02-06T12:07:30.744Z,3.20
2019-02-06T12:10:09.490Z,3.43
2019-02-06T12:12:32.253Z,4.97
2019-02-06T12:15:02.355Z,3.60
2019-02-06T12:17:32.151Z,3.73
2019-02-06T12:20:02.596Z,2.87
2019-02-06T12:22:32.559Z,2.77
2019-02-06T12:25:02.593Z,3.03
2019-02-06T12:27:32.806Z,2.40
2019-02-06T12:30:02.819Z,2.43
2019-02-06T12:32:32.928Z,2.23
2019-02-06T12:35:03.926Z,2.87
2019-02-06T12:37:33.835Z,2.40
2019-02-06T12:40:05.129Z,2.33
2019-02-06T12:42:35.040Z,2.37
2019-02-06T12:45:07.623Z,2.50
2019-02-06T12:47:37.521Z,2.63
2019-02-06T12:50:11.781Z,2.90
2019-02-06T12:52:41.770Z,2.57
2019-02-06T12:55:21.716Z,2.43
2019-02-06T12:57:51.737Z,2.20
2019-02-06T13:00:28.420Z,2.57
2019-02-06T13:03:00.001Z,2.20
2019-02-06T13:05:31.424Z,2.30
2019-02-06T13:08:01.599Z,2.30
2019-02-06T13:10:34.214Z,2.77
2019-02-06T13:13:03.590Z,2.30
2019-02-06T13:15:34.683Z,2.53
2019-02-06T13:18:05.580Z,2.50
2019-02-06T13:20:37.365Z,2.70
2019-02-06T13:23:07.963Z,2.80
2019-02-06T13:25:37.874Z,2.73
2019-02-06T13:28:08.379Z,2.70
2019-02-06T13:30:39.275Z,2.80
2019-02-06T13:33:11.672Z,3.00
2019-02-06T13:35:41.953Z,2.60
2019-02-06T13:38:11.867Z,3.20
2019-02-06T13:40:45.762Z,3.70
2019-02-06T13:43:14.160Z,4.07
2019-02-06T13:45:48.010Z,4.20
2019-02-06T13:48:17.910Z,5.63
2019-02-06T13:50:47.925Z,6.70
2019-02-06T13:53:17.739Z,5.90
2019-02-06T13:55:48.656Z,6.70
2019-02-06T13:58:20.458Z,6.23
2019-02-06T14:00:52.455Z,3.57
2019-02-06T14:03:22.502Z,5.83
2019-02-06T14:05:52.682Z,2.40
2019-02-06T14:08:22.910Z,2.10
2019-02-06T14:11:00.139Z,2.00
2019-02-06T14:13:25.405Z,2.60
2019-02-06T14:15:56.001Z,3.40
2019-02-06T14:18:26.013Z,3.70
2019-02-06T14:20:56.222Z,4.20
2019-02-06T14:23:36.419Z,4.10
2019-02-06T14:26:14.376Z,2.97
2019-02-06T14:29:06.819Z,2.37
2019-02-06T14:31:52.777Z,2.80
2019-02-06T14:34:46.495Z,2.90
2019-02-06T14:37:29.290Z,6.00
2019-02-06T14:40:41.667Z,7.57
2019-02-06T14:43:18.953Z,6.33
2019-02-06T14:46:05.196Z,4.07
2019-02-06T14:48:58.396Z,2.80
2019-02-06T14:52:18.346Z,2.73
2019-02-06T14:55:12.271Z,2.90
2019-02-06T14:57:55.436Z,2.30
2019-02-06T15:01:07.616Z,2.90
2019-02-06T15:04:07.018Z,3.07
2019-02-06T15:07:02.000Z,2.90
2019-02-06T15:10:17.036Z,2.70
2019-02-06T15:13:06.040Z,2.47
2019-02-06T15:15:49.203Z,4.80
2019-02-06T15:18:38.671Z,2.90
2019-02-06T15:21:21.937Z,2.90
2019-02-06T15:24:26.803Z,3.00
2019-02-06T15:27:20.673Z,3.27
2019-02-06T15:29:55.338Z,3.57
2019-02-06T15:32:50.781Z,3.70
2019-02-06T15:35:33.571Z,4.23
2019-02-06T15:38:19.410Z,3.20
2019-02-06T15:41:08.490Z,3.60
2019-02-06T15:43:51.580Z,3.03
2019-02-06T15:46:52.848Z,3.60
2019-02-06T15:49:49.600Z,3.00
2019-02-06T15:53:00.702Z,2.73
2019-02-06T15:55:46.668Z,2.97
2019-02-06T15:58:36.119Z,2.80
2019-02-06T16:01:30.020Z,11.97
2019-02-06T16:04:38.757Z,6.20
2019-02-06T16:07:27.351Z,4.30
2019-02-06T16:10:10.533Z,5.20
2019-02-06T16:12:47.436Z,3.00
2019-02-06T16:15:49.193Z,2.90
2019-02-06T16:18:41.909Z,2.80
2019-02-06T16:21:53.456Z,2.70
2019-02-06T16:24:28.530Z,3.40
2019-02-06T16:27:29.414Z,2.97
2019-02-06T16:30:24.588Z,3.20
2019-02-06T16:33:38.151Z,3.00
2019-02-06T16:36:31.949Z,3.23
2019-02-06T16:39:30.760Z,3.20
2019-02-06T16:42:29.186Z,2.90
2019-02-06T16:45:41.073Z,2.87
2019-02-06T16:48:34.195Z,3.27
2019-02-06T16:51:17.471Z,4.20
2019-02-06T16:54:17.465Z,4.33
2019-02-06T16:57:06.744Z,3.80
2019-02-06T17:00:12.634Z,4.03
2019-02-06T17:03:01.832Z,5.40
2019-02-06T17:05:36.546Z,6.43
2019-02-06T17:08:25.730Z,6.87
2019-02-06T17:11:11.270Z,6.93
2019-02-06T17:13:54.361Z,28.70
2019-02-06T17:16:52.192Z,22.73
2019-02-06T17:19:32.185Z,15.73
2019-02-06T17:22:27.555Z,11.70
2019-02-06T17:25:33.301Z,14.07
2019-02-06T17:28:13.636Z,11.43
2019-02-06T17:31:21.395Z,11.77
2019-02-06T17:34:24.634Z,10.20
2019-02-06T17:37:07.819Z,10.10
2019-02-06T17:39:42.026Z,11.77
2019-02-06T17:42:33.102Z,11.07
2019-02-06T17:45:10.097Z,11.67
2019-02-06T17:47:53.488Z,12.43
2019-02-06T17:50:36.467Z,12.93
2019-02-06T17:53:19.556Z,11.50
2019-02-06T17:55:49.954Z,11.43
2019-02-06T17:58:20.556Z,11.13
2019-02-06T18:01:02.463Z,12.07
2019-02-06T18:03:37.388Z,12.83
2019-02-06T18:06:08.019Z,10.87
2019-02-06T18:08:39.982Z,11.20
2019-02-06T18:11:10.671Z,11.73
2019-02-06T18:13:40.877Z,11.67
2019-02-06T18:16:20.852Z,11.77
2019-02-06T18:18:42.669Z,12.97
2019-02-06T18:21:12.779Z,14.40
2019-02-06T18:23:42.693Z,14.97
2019-02-06T18:26:13.201Z,15.83
2019-02-06T18:28:43.106Z,17.27
2019-02-06T18:31:14.122Z,17.50
2019-02-06T18:33:44.119Z,19.77
2019-02-06T18:36:14.325Z,25.10
2019-02-06T18:38:46.700Z,32.03
2019-02-06T18:41:15.922Z,31.97
2019-02-06T18:43:45.830Z,28.17
2019-02-06T18:46:16.337Z,27.17
2019-02-06T18:48:46.249Z,27.67
2019-02-06T18:51:16.165Z,28.37
2019-02-06T18:53:46.176Z,25.43
2019-02-06T18:56:16.667Z,26.60
2019-02-06T18:58:46.590Z,25.23
2019-02-06T19:01:16.525Z,26.37
2019-02-06T19:03:47.643Z,26.07
2019-02-06T19:06:19.004Z,28.00
2019-02-06T19:08:49.783Z,26.47
2019-02-06T19:11:19.947Z,28.10
2019-02-06T19:13:50.000Z,28.30
2019-02-06T19:16:20.211Z,27.33
2019-02-06T19:18:50.124Z,27.20
2019-02-06T19:21:21.017Z,27.43
2019-02-06T19:23:51.038Z,27.10
2019-02-06T19:26:21.139Z,23.73
2019-02-06T19:28:51.056Z,21.57
2019-02-06T19:31:21.165Z,24.53
2019-02-06T19:33:51.371Z,24.33
2019-02-06T19:36:21.976Z,25.83
2019-02-06T19:38:51.887Z,41.73
2019-02-06T19:41:21.802Z,41.17
2019-02-06T19:43:51.712Z,39.67
2019-02-06T19:46:21.628Z,40.67
2019-02-06T19:48:51.548Z,40.53
2019-02-06T19:51:21.454Z,62.40
2019-02-06T19:53:51.867Z,66.37
2019-02-06T19:56:22.169Z,66.83
2019-02-06T19:58:52.379Z,91.63
2019-02-06T20:01:22.286Z,72.17
2019-02-06T20:03:52.734Z,81.67
2019-02-06T20:06:31.453Z,70.10
2019-02-06T20:09:02.008Z,61.87
2019-02-06T20:11:32.074Z,55.40
2019-02-06T20:14:02.679Z,52.90
2019-02-06T20:16:33.373Z,47.90
2019-02-06T20:19:03.890Z,47.97
2019-02-06T20:21:34.282Z,49.53
2019-02-06T20:24:05.496Z,45.53
2019-02-06T20:26:35.673Z,52.30
2019-02-06T20:29:06.243Z,51.87
2019-02-06T20:31:37.208Z,52.73
2019-02-06T20:34:08.060Z,65.67
2019-02-06T20:36:39.131Z,66.70
2019-02-06T20:39:10.176Z,67.07
2019-02-06T20:41:40.739Z,75.07
2019-02-06T20:44:12.753Z,72.47
2019-02-06T20:46:43.750Z,77.50
2019-02-06T20:49:14.419Z,66.10
2019-02-06T20:51:45.647Z,65.23
2019-02-06T20:54:16.328Z,57.63
2019-02-06T20:56:46.674Z,56.27
2019-02-06T20:59:17.736Z,45.87
2019-02-06T21:01:48.237Z,47.27
2019-02-06T21:04:21.006Z,44.83
2019-02-06T21:06:52.141Z,47.07
2019-02-06T21:09:22.675Z,49.03
2019-02-06T21:11:53.943Z,56.63
2019-02-06T21:14:25.561Z,55.83
2019-02-06T21:16:55.927Z,66.13
2019-02-06T21:19:28.231Z,67.23
2019-02-06T21:21:58.652Z,86.83
2019-02-06T21:24:29.252Z,85.23
2019-02-06T21:26:59.947Z,89.07
2019-02-06T21:29:30.326Z,101.33
2019-02-06T21:32:00.759Z,95.73
2019-02-06T21:34:31.655Z,111.63
2019-02-06T21:37:01.562Z,103.17
2019-02-06T21:39:31.474Z,93.90
2019-02-06T21:42:01.284Z,94.43
2019-02-06T21:44:31.596Z,87.83
2019-02-06T21:47:01.807Z,89.03
2019-02-06T21:49:32.015Z,67.53
2019-02-06T21:52:02.025Z,57.67
2019-02-06T21:54:32.136Z,49.77
2019-02-06T21:57:02.187Z,50.90
2019-02-06T21:59:32.158Z,49.57
2019-02-06T22:02:02.071Z,49.13
2019-02-06T22:04:31.984Z,46.27
2019-02-06T22:07:02.299Z,45.87
2019-02-06T22:09:32.498Z,49.10
2019-02-06T22:12:02.413Z,47.77
2019-02-06T22:14:32.825Z,46.90
2019-02-06T22:17:03.221Z,48.27
2019-02-06T22:19:33.137Z,44.67
2019-02-06T22:22:03.048Z,49.50
2019-02-06T22:24:32.963Z,62.80
2019-02-06T22:27:02.876Z,53.83
2019-02-06T22:29:32.789Z,50.97
2019-02-06T22:32:02.705Z,47.57
2019-02-06T22:34:32.615Z,48.17
2019-02-06T22:37:02.828Z,46.30
2019-02-06T22:39:32.739Z,44.10
2019-02-06T22:42:02.657Z,38.00
2019-02-06T22:44:32.566Z,40.57
2019-02-06T22:47:02.484Z,43.67
2019-02-06T22:49:33.050Z,44.47
2019-02-06T22:52:02.999Z,44.63
2019-02-06T22:54:32.904Z,46.37
2019-02-06T22:57:02.920Z,47.77
2019-02-06T22:59:33.617Z,43.20
2019-02-06T23:02:04.287Z,40.13
2019-02-06T23:04:34.229Z,40.43
2019-02-06T23:07:07.060Z,41.67
2019-02-06T23:09:36.028Z,45.60
2019-02-06T23:12:06.815Z,35.30
2019-02-06T23:14:36.737Z,35.90
2019-02-06T23:17:06.847Z,36.33
2019-02-06T23:19:37.251Z,51.87
2019-02-06T23:22:07.695Z,51.67
2019-02-06T23:24:37.963Z,51.00
2019-02-06T23:27:08.176Z,50.30
2019-02-06T23:29:38.669Z,42.67
2019-02-06T23:32:08.685Z,37.53
2019-02-06T23:34:38.599Z,30.73
2019-02-06T23:37:11.436Z,29.80
2019-02-06T23:39:41.176Z,31.27
2019-02-06T23:42:11.388Z,32.37
2019-02-06T23:44:41.594Z,42.57
2019-02-06T23:47:11.803Z,63.50
2019-02-06T23:49:41.717Z,65.03
2019-02-06T23:52:11.685Z,68.07
2019-02-06T23:54:41.742Z,61.17
2019-02-06T23:57:11.653Z,36.90
2019-02-06T23:59:41.570Z,41.37
